sensor_id;sensor_type;location;lat;lon;timestamp;pressure;altitude;pressure_sealevel;temperature
69785;BMP280;14177;51.520;6.764;2023-04-30T00:02:20;102066.59;;;9.39
69785;BMP280;14177;51.520;6.764;2023-04-30T00:04:47;102062.31;;;9.33
69785;BMP280;14177;51.520;6.764;2023-04-30T00:07:14;102060.59;;;9.29
69785;BMP280;14177;51.520;6.764;2023-04-30T00:09:41;102075.31;;;9.27
69785;BMP280;14177;51.520;6.764;2023-04-30T00:12:08;102061.47;;;9.24
69785;BMP280;14177;51.520;6.764;2023-04-30T00:14:35;102063.22;;;9.19
69785;BMP280;14177;51.520;6.764;2023-04-30T00:17:02;102068.44;;;9.16
69785;BMP280;14177;51.520;6.764;2023-04-30T00:19:29;102074.50;;;9.13
69785;BMP280;14177;51.520;6.764;2023-04-30T00:21:56;102076.25;;;9.08
69785;BMP280;14177;51.520;6.764;2023-04-30T00:24:23;102080.59;;;9.08
69785;BMP280;14177;51.520;6.764;2023-04-30T00:26:50;102072.84;;;9.03
69785;BMP280;14177;51.520;6.764;2023-04-30T00:29:17;102078.91;;;8.99
69785;BMP280;14177;51.520;6.764;2023-04-30T00:31:44;102078.91;;;8.96
69785;BMP280;14177;51.520;6.764;2023-04-30T00:34:11;102076.34;;;8.90
69785;BMP280;14177;51.520;6.764;2023-04-30T00:36:40;102076.34;;;8.84
69785;BMP280;14177;51.520;6.764;2023-04-30T00:39:07;102078.09;;;8.82
69785;BMP280;14177;51.520;6.764;2023-04-30T00:41:34;102078.09;;;8.76
69785;BMP280;14177;51.520;6.764;2023-04-30T00:44:01;102085.03;;;8.76
69785;BMP280;14177;51.520;6.764;2023-04-30T00:46:28;102085.03;;;8.74
69785;BMP280;14177;51.520;6.764;2023-04-30T00:48:57;102085.91;;;8.72
69785;BMP280;14177;51.520;6.764;2023-04-30T00:51:25;102081.59;;;8.71
69785;BMP280;14177;51.520;6.764;2023-04-30T00:53:52;102081.63;;;8.69
69785;BMP280;14177;51.520;6.764;2023-04-30T00:56:19;102079.03;;;8.68
69785;BMP280;14177;51.520;6.764;2023-04-30T00:58:48;102075.56;;;8.66
69785;BMP280;14177;51.520;6.764;2023-04-30T01:01:17;102075.59;;;8.60
69785;BMP280;14177;51.520;6.764;2023-04-30T01:03:45;102082.50;;;8.55
69785;BMP280;14177;51.520;6.764;2023-04-30T01:06:12;102073.88;;;8.47
69785;BMP280;14177;51.520;6.764;2023-04-30T01:08:39;102082.53;;;8.42
69785;BMP280;14177;51.520;6.764;2023-04-30T01:16:39;102083.41;;;8.29
69785;BMP280;14177;51.520;6.764;2023-04-30T01:19:41;102080.84;;;8.23
69785;BMP280;14177;51.520;6.764;2023-04-30T01:22:24;102079.13;;;8.20
69785;BMP280;14177;51.520;6.764;2023-04-30T01:28:17;102083.41;;;8.08
69785;BMP280;14177;51.520;6.764;2023-04-30T01:30:49;102080.81;;;8.03
69785;BMP280;14177;51.520;6.764;2023-04-30T01:33:16;102081.72;;;7.98
69785;BMP280;14177;51.520;6.764;2023-04-30T01:39:29;102081.69;;;7.86
69785;BMP280;14177;51.520;6.764;2023-04-30T01:42:22;102077.38;;;7.80
69785;BMP280;14177;51.520;6.764;2023-04-30T01:45:34;102084.28;;;7.77
69785;BMP280;14177;51.520;6.764;2023-04-30T01:48:58;102082.53;;;7.73
69785;BMP280;14177;51.520;6.764;2023-04-30T01:51:42;102087.69;;;7.71
69785;BMP280;14177;51.520;6.764;2023-04-30T01:54:35;102085.13;;;7.70
69785;BMP280;14177;51.520;6.764;2023-04-30T01:57:07;102085.13;;;7.67
69785;BMP280;14177;51.520;6.764;2023-04-30T01:59:38;102086.00;;;7.64
69785;BMP280;14177;51.520;6.764;2023-04-30T02:02:06;102079.97;;;7.62
69785;BMP280;14177;51.520;6.764;2023-04-30T02:04:33;102079.94;;;7.61
69785;BMP280;14177;51.520;6.764;2023-04-30T02:07:02;102085.13;;;7.61
69785;BMP280;14177;51.520;6.764;2023-04-30T02:09:29;102090.31;;;7.59
69785;BMP280;14177;51.520;6.764;2023-04-30T02:11:56;102090.28;;;7.58
69785;BMP280;14177;51.520;6.764;2023-04-30T02:14:24;102090.28;;;7.55
69785;BMP280;14177;51.520;6.764;2023-04-30T02:16:52;102107.50;;;7.53
69785;BMP280;14177;51.520;6.764;2023-04-30T02:19:19;102105.78;;;7.49
69785;BMP280;14177;51.520;6.764;2023-04-30T02:21:46;102101.47;;;7.48
69785;BMP280;14177;51.520;6.764;2023-04-30T02:24:12;102093.69;;;7.45
69785;BMP280;14177;51.520;6.764;2023-04-30T02:26:39;102098.88;;;7.42
69785;BMP280;14177;51.520;6.764;2023-04-30T02:29:06;102094.56;;;7.39
69785;BMP280;14177;51.520;6.764;2023-04-30T02:31:33;102088.50;;;7.36
69785;BMP280;14177;51.520;6.764;2023-04-30T02:34:00;102093.66;;;7.33
69785;BMP280;14177;51.520;6.764;2023-04-30T02:36:27;102086.75;;;7.29
69785;BMP280;14177;51.520;6.764;2023-04-30T02:38:54;102090.22;;;7.25
69785;BMP280;14177;51.520;6.764;2023-04-30T02:41:21;102088.50;;;7.21
69785;BMP280;14177;51.520;6.764;2023-04-30T02:43:48;102090.22;;;7.22
69785;BMP280;14177;51.520;6.764;2023-04-30T02:46:15;102088.50;;;7.21
69785;BMP280;14177;51.520;6.764;2023-04-30T02:48:42;102096.22;;;7.22
69785;BMP280;14177;51.520;6.764;2023-04-30T02:51:09;102086.75;;;7.18
69785;BMP280;14177;51.520;6.764;2023-04-30T02:53:36;102085.03;;;7.19
69785;BMP280;14177;51.520;6.764;2023-04-30T02:56:03;102088.47;;;7.18
69785;BMP280;14177;51.520;6.764;2023-04-30T02:58:30;102076.41;;;7.17
69785;BMP280;14177;51.520;6.764;2023-04-30T03:00:58;102081.59;;;7.17
69785;BMP280;14177;51.520;6.764;2023-04-30T03:03:25;102076.41;;;7.17
69785;BMP280;14177;51.520;6.764;2023-04-30T03:05:52;102085.03;;;7.16
69785;BMP280;14177;51.520;6.764;2023-04-30T03:08:22;102079.84;;;7.18
69785;BMP280;14177;51.520;6.764;2023-04-30T03:10:49;102078.13;;;7.17
69785;BMP280;14177;51.520;6.764;2023-04-30T03:13:16;102081.56;;;7.14
69785;BMP280;14177;51.520;6.764;2023-04-30T03:15:43;102077.25;;;7.12
69785;BMP280;14177;51.520;6.764;2023-04-30T03:18:11;102082.41;;;7.07
69785;BMP280;14177;51.520;6.764;2023-04-30T03:20:38;102074.63;;;7.06
69785;BMP280;14177;51.520;6.764;2023-04-30T03:23:05;102079.81;;;7.04
69785;BMP280;14177;51.520;6.764;2023-04-30T03:25:32;102074.63;;;7.01
69785;BMP280;14177;51.520;6.764;2023-04-30T03:27:59;102077.19;;;6.97
69785;BMP280;14177;51.520;6.764;2023-04-30T03:30:26;102077.19;;;6.95
69785;BMP280;14177;51.520;6.764;2023-04-30T03:32:53;102076.31;;;6.93
69785;BMP280;14177;51.520;6.764;2023-04-30T03:35:20;102078.03;;;6.91
69785;BMP280;14177;51.520;6.764;2023-04-30T03:37:47;102091.81;;;6.90
69785;BMP280;14177;51.520;6.764;2023-04-30T03:40:14;102090.94;;;6.91
69785;BMP280;14177;51.520;6.764;2023-04-30T03:42:41;102086.66;;;6.89
69785;BMP280;14177;51.520;6.764;2023-04-30T03:45:09;102086.66;;;6.89
69785;BMP280;14177;51.520;6.764;2023-04-30T03:47:36;102090.06;;;6.89
69785;BMP280;14177;51.520;6.764;2023-04-30T03:50:04;102084.91;;;6.88
69785;BMP280;14177;51.520;6.764;2023-04-30T03:52:31;102085.75;;;6.88
69785;BMP280;14177;51.520;6.764;2023-04-30T03:54:59;102091.78;;;6.87
69785;BMP280;14177;51.520;6.764;2023-04-30T03:57:26;102096.09;;;6.87
69785;BMP280;14177;51.520;6.764;2023-04-30T03:59:53;102102.13;;;6.86
69785;BMP280;14177;51.520;6.764;2023-04-30T04:02:21;102097.84;;;6.88
69785;BMP280;14177;51.520;6.764;2023-04-30T04:04:50;102094.38;;;6.87
69785;BMP280;14177;51.520;6.764;2023-04-30T04:07:17;102097.81;;;6.86
69785;BMP280;14177;51.520;6.764;2023-04-30T04:09:45;102094.38;;;6.86
69785;BMP280;14177;51.520;6.764;2023-04-30T04:12:12;102097.81;;;6.85
69785;BMP280;14177;51.520;6.764;2023-04-30T04:14:39;102092.63;;;6.83
69785;BMP280;14177;51.520;6.764;2023-04-30T04:17:06;102096.94;;;6.84
69785;BMP280;14177;51.520;6.764;2023-04-30T04:19:34;102093.50;;;6.85
69785;BMP280;14177;51.520;6.764;2023-04-30T04:22:01;102091.78;;;6.86
69785;BMP280;14177;51.520;6.764;2023-04-30T04:24:28;102090.91;;;6.85
69785;BMP280;14177;51.520;6.764;2023-04-30T04:26:55;102090.94;;;6.88
69785;BMP280;14177;51.520;6.764;2023-04-30T04:29:22;102096.09;;;6.93
69785;BMP280;14177;51.520;6.764;2023-04-30T04:31:50;102096.97;;;6.93
69785;BMP280;14177;51.520;6.764;2023-04-30T04:34:17;102098.69;;;6.91
69785;BMP280;14177;51.520;6.764;2023-04-30T04:36:45;102102.16;;;6.92
69785;BMP280;14177;51.520;6.764;2023-04-30T04:39:13;102103.84;;;6.93
69785;BMP280;14177;51.520;6.764;2023-04-30T04:41:40;102109.91;;;6.95
69785;BMP280;14177;51.520;6.764;2023-04-30T04:44:08;102104.72;;;6.95
69785;BMP280;14177;51.520;6.764;2023-04-30T04:46:35;102107.34;;;6.96
69785;BMP280;14177;51.520;6.764;2023-04-30T04:49:04;102108.19;;;6.97
69785;BMP280;14177;51.520;6.764;2023-04-30T04:51:31;102107.34;;;6.99
69785;BMP280;14177;51.520;6.764;2023-04-30T04:53:59;102115.13;;;7.02
69785;BMP280;14177;51.520;6.764;2023-04-30T04:56:26;102103.91;;;7.03
69785;BMP280;14177;51.520;6.764;2023-04-30T04:58:53;102109.09;;;7.06
69785;BMP280;14177;51.520;6.764;2023-04-30T05:01:21;102113.41;;;7.12
69785;BMP280;14177;51.520;6.764;2023-04-30T05:03:48;102116.03;;;7.16
69785;BMP280;14177;51.520;6.764;2023-04-30T05:06:18;102111.72;;;7.19
69785;BMP280;14177;51.520;6.764;2023-04-30T05:08:46;102118.66;;;7.26
69785;BMP280;14177;51.520;6.764;2023-04-30T05:11:14;102112.63;;;7.30
69785;BMP280;14177;51.520;6.764;2023-04-30T05:13:42;102114.34;;;7.36
69785;BMP280;14177;51.520;6.764;2023-04-30T05:16:10;102116.09;;;7.43
69785;BMP280;14177;51.520;6.764;2023-04-30T05:18:37;102119.56;;;7.45
69785;BMP280;14177;51.520;6.764;2023-04-30T05:21:04;102119.56;;;7.51
69785;BMP280;14177;51.520;6.764;2023-04-30T05:23:32;102114.44;;;7.55
69785;BMP280;14177;51.520;6.764;2023-04-30T05:25:59;102120.47;;;7.62
69785;BMP280;14177;51.520;6.764;2023-04-30T05:28:26;102113.56;;;7.68
69785;BMP280;14177;51.520;6.764;2023-04-30T05:30:53;102117.03;;;7.72
69785;BMP280;14177;51.520;6.764;2023-04-30T05:33:21;102119.63;;;7.78
69785;BMP280;14177;51.520;6.764;2023-04-30T05:35:48;102125.66;;;7.84
69785;BMP280;14177;51.520;6.764;2023-04-30T05:38:16;102121.38;;;7.91
69785;BMP280;14177;51.520;6.764;2023-04-30T05:40:44;102123.97;;;7.95
69785;BMP280;14177;51.520;6.764;2023-04-30T05:43:12;102125.69;;;8.05
69785;BMP280;14177;51.520;6.764;2023-04-30T05:45:39;102123.94;;;8.12
69785;BMP280;14177;51.520;6.764;2023-04-30T05:48:07;102125.72;;;8.19
69785;BMP280;14177;51.520;6.764;2023-04-30T05:50:34;102124.00;;;8.27
69785;BMP280;14177;51.520;6.764;2023-04-30T05:53:02;102123.97;;;8.39
69785;BMP280;14177;51.520;6.764;2023-04-30T05:55:30;102121.38;;;8.53
69785;BMP280;14177;51.520;6.764;2023-04-30T05:57:58;102123.94;;;8.65
69785;BMP280;14177;51.520;6.764;2023-04-30T06:00:26;102126.47;;;8.77
69785;BMP280;14177;51.520;6.764;2023-04-30T06:02:55;102118.69;;;8.88
69785;BMP280;14177;51.520;6.764;2023-04-30T06:05:22;102122.97;;;8.96
69785;BMP280;14177;51.520;6.764;2023-04-30T06:07:49;102115.19;;;9.07
69785;BMP280;14177;51.520;6.764;2023-04-30T06:10:16;102115.97;;;9.19
69785;BMP280;14177;51.520;6.764;2023-04-30T06:12:43;102121.97;;;9.33
69785;BMP280;14177;51.520;6.764;2023-04-30T06:15:11;102122.75;;;9.43
69785;BMP280;14177;51.520;6.764;2023-04-30T06:17:38;102123.56;;;9.54
69785;BMP280;14177;51.520;6.764;2023-04-30T06:20:06;102127.84;;;9.63
69785;BMP280;14177;51.520;6.764;2023-04-30T06:22:33;102126.91;;;9.73
69785;BMP280;14177;51.520;6.764;2023-04-30T06:25:00;102114.75;;;9.80
69785;BMP280;14177;51.520;6.764;2023-04-30T06:27:29;102122.47;;;9.89
69785;BMP280;14177;51.520;6.764;2023-04-30T06:29:58;102121.53;;;9.97
69785;BMP280;14177;51.520;6.764;2023-04-30T06:32:26;102122.38;;;10.07
69785;BMP280;14177;51.520;6.764;2023-04-30T06:34:54;102126.63;;;10.15
69785;BMP280;14177;51.520;6.764;2023-04-30T06:37:21;102126.50;;;10.29
69785;BMP280;14177;51.520;6.764;2023-04-30T06:39:48;102132.47;;;10.38
69785;BMP280;14177;51.520;6.764;2023-04-30T06:42:15;102131.56;;;10.44
69785;BMP280;14177;51.520;6.764;2023-04-30T06:44:42;102128.91;;;10.51
69785;BMP280;14177;51.520;6.764;2023-04-30T06:47:11;102128.78;;;10.62
69785;BMP280;14177;51.520;6.764;2023-04-30T06:49:38;102126.03;;;10.77
69785;BMP280;14177;51.520;6.764;2023-04-30T06:52:05;102120.66;;;10.90
69785;BMP280;14177;51.520;6.764;2023-04-30T06:54:33;102112.72;;;11.00
69785;BMP280;14177;51.520;6.764;2023-04-30T06:57:00;102120.38;;;11.12
69785;BMP280;14177;51.520;6.764;2023-04-30T06:59:28;102124.63;;;11.21
69785;BMP280;14177;51.520;6.764;2023-04-30T07:01:55;102118.38;;;11.34
69785;BMP280;14177;51.520;6.764;2023-04-30T07:04:22;102119.13;;;11.43
69785;BMP280;14177;51.520;6.764;2023-04-30T07:06:50;102116.34;;;11.57
69785;BMP280;14177;51.520;6.764;2023-04-30T07:09:18;102112.66;;;11.71
69785;BMP280;14177;51.520;6.764;2023-04-30T07:11:48;102116.81;;;11.84
69785;BMP280;14177;51.520;6.764;2023-04-30T07:14:18;102107.16;;;11.91
69785;BMP280;14177;51.520;6.764;2023-04-30T07:16:46;102111.53;;;11.89
69785;BMP280;14177;51.520;6.764;2023-04-30T07:19:15;102111.47;;;11.93
69785;BMP280;14177;51.520;6.764;2023-04-30T07:21:42;102118.34;;;11.97
69785;BMP280;14177;51.520;6.764;2023-04-30T07:24:18;102113.84;;;12.07
69785;BMP280;14177;51.520;6.764;2023-04-30T07:26:45;102110.97;;;12.23
69785;BMP280;14177;51.520;6.764;2023-04-30T07:29:12;102108.84;;;12.43
69785;BMP280;14177;51.520;6.764;2023-04-30T07:31:39;102097.31;;;12.57
69785;BMP280;14177;51.520;6.764;2023-04-30T07:34:06;102104.88;;;12.71
69785;BMP280;14177;51.520;6.764;2023-04-30T07:36:34;102115.13;;;12.80
69785;BMP280;14177;51.520;6.764;2023-04-30T07:39:01;102101.00;;;12.90
69785;BMP280;14177;51.520;6.764;2023-04-30T07:41:28;102104.25;;;13.02
69785;BMP280;14177;51.520;6.764;2023-04-30T07:43:55;102111.72;;;13.20
69785;BMP280;14177;51.520;6.764;2023-04-30T07:46:23;102112.44;;;13.27
69785;BMP280;14177;51.520;6.764;2023-04-30T07:48:51;102119.19;;;13.36
69785;BMP280;14177;51.520;6.764;2023-04-30T07:51:18;102109.31;;;13.49
69785;BMP280;14177;51.520;6.764;2023-04-30T07:53:45;102109.94;;;13.61
69785;BMP280;14177;51.520;6.764;2023-04-30T07:56:12;102114.06;;;13.70
69785;BMP280;14177;51.520;6.764;2023-04-30T07:58:39;102110.97;;;13.91
69785;BMP280;14177;51.520;6.764;2023-04-30T08:01:07;102111.44;;;14.08
69785;BMP280;14177;51.520;6.764;2023-04-30T08:03:34;102117.00;;;14.29
69785;BMP280;14177;51.520;6.764;2023-04-30T08:06:01;102111.47;;;14.41
69785;BMP280;14177;51.520;6.764;2023-04-30T08:08:28;102110.13;;;14.57
69785;BMP280;14177;51.520;6.764;2023-04-30T08:10:55;102098.28;;;14.76
69785;BMP280;14177;51.520;6.764;2023-04-30T08:13:22;102113.72;;;14.85
69785;BMP280;14177;51.520;6.764;2023-04-30T08:15:49;102109.88;;;14.98
69785;BMP280;14177;51.520;6.764;2023-04-30T08:18:16;102108.47;;;15.17
69785;BMP280;14177;51.520;6.764;2023-04-30T08:20:43;102113.03;;;15.39
69785;BMP280;14177;51.520;6.764;2023-04-30T08:23:10;102115.06;;;15.59
69785;BMP280;14177;51.520;6.764;2023-04-30T08:25:37;102104.09;;;15.74
69785;BMP280;14177;51.520;6.764;2023-04-30T08:28:05;102113.81;;;15.97
69785;BMP280;14177;51.520;6.764;2023-04-30T08:30:32;102101.59;;;16.22
69785;BMP280;14177;51.520;6.764;2023-04-30T08:32:59;102093.03;;;16.43
69785;BMP280;14177;51.520;6.764;2023-04-30T08:35:26;102095.94;;;16.60
69785;BMP280;14177;51.520;6.764;2023-04-30T08:37:55;102083.53;;;16.88
69785;BMP280;14177;51.520;6.764;2023-04-30T08:40:22;102093.44;;;17.05
69785;BMP280;14177;51.520;6.764;2023-04-30T08:43:09;102090.03;;;17.24
69785;BMP280;14177;51.520;6.764;2023-04-30T08:45:37;102088.75;;;17.35
69785;BMP280;14177;51.520;6.764;2023-04-30T08:48:09;102091.47;;;17.55
69785;BMP280;14177;51.520;6.764;2023-04-30T08:50:37;102090.13;;;17.67
69785;BMP280;14177;51.520;6.764;2023-04-30T08:53:06;102099.09;;;17.83
69785;BMP280;14177;51.520;6.764;2023-04-30T08:55:33;102093.28;;;17.75
69785;BMP280;14177;51.520;6.764;2023-04-30T08:58:00;102089.09;;;17.71
69785;BMP280;14177;51.520;6.764;2023-04-30T09:00:31;102085.09;;;18.04
69785;BMP280;14177;51.520;6.764;2023-04-30T09:03:00;102080.28;;;18.34
69785;BMP280;14177;51.520;6.764;2023-04-30T09:05:27;102080.81;;;18.62
69785;BMP280;14177;51.520;6.764;2023-04-30T09:07:54;102077.50;;;18.77
69785;BMP280;14177;51.520;6.764;2023-04-30T09:10:33;102077.56;;;18.94
69785;BMP280;14177;51.520;6.764;2023-04-30T09:13:08;102074.94;;;19.14
69785;BMP280;14177;51.520;6.764;2023-04-30T09:15:37;102062.91;;;19.27
69785;BMP280;14177;51.520;6.764;2023-04-30T09:18:16;102071.06;;;19.40
69785;BMP280;14177;51.520;6.764;2023-04-30T09:20:59;102069.09;;;19.63
69785;BMP280;14177;51.520;6.764;2023-04-30T09:23:29;102069.88;;;19.82
69785;BMP280;14177;51.520;6.764;2023-04-30T09:25:56;102062.09;;;19.97
69785;BMP280;14177;51.520;6.764;2023-04-30T09:28:23;102060.25;;;20.16
69785;BMP280;14177;51.520;6.764;2023-04-30T09:30:52;102052.94;;;20.38
69785;BMP280;14177;51.520;6.764;2023-04-30T09:33:19;102055.88;;;20.66
69785;BMP280;14177;51.520;6.764;2023-04-30T09:35:46;102051.47;;;20.82
69785;BMP280;14177;51.520;6.764;2023-04-30T09:38:31;102043.94;;;20.91
69785;BMP280;14177;51.520;6.764;2023-04-30T09:41:00;102050.75;;;20.95
69785;BMP280;14177;51.520;6.764;2023-04-30T09:43:28;102041.41;;;21.05
69785;BMP280;14177;51.520;6.764;2023-04-30T09:45:58;102040.13;;;21.12
69785;BMP280;14177;51.520;6.764;2023-04-30T09:48:26;102032.09;;;21.29
69785;BMP280;14177;51.520;6.764;2023-04-30T09:50:56;102040.81;;;21.47
69785;BMP280;14177;51.520;6.764;2023-04-30T09:53:23;102028.56;;;21.61
69785;BMP280;14177;51.520;6.764;2023-04-30T09:55:51;102032.28;;;21.73
69785;BMP280;14177;51.520;6.764;2023-04-30T09:58:18;102026.28;;;21.85
69785;BMP280;14177;51.520;6.764;2023-04-30T10:00:46;102017.28;;;21.87
69785;BMP280;14177;51.520;6.764;2023-04-30T10:03:17;102021.84;;;21.85
69785;BMP280;14177;51.520;6.764;2023-04-30T10:05:47;102019.94;;;21.87
69785;BMP280;14177;51.520;6.764;2023-04-30T10:08:26;102018.31;;;22.14
69785;BMP280;14177;51.520;6.764;2023-04-30T10:11:01;102011.84;;;22.33
69785;BMP280;14177;51.520;6.764;2023-04-30T10:13:41;102007.91;;;22.54
69785;BMP280;14177;51.520;6.764;2023-04-30T10:16:33;102017.50;;;22.57
69785;BMP280;14177;51.520;6.764;2023-04-30T10:19:10;102010.56;;;22.68
69785;BMP280;14177;51.520;6.764;2023-04-30T10:21:40;102011.72;;;22.78
69785;BMP280;14177;51.520;6.764;2023-04-30T10:24:13;102004.13;;;22.86
69785;BMP280;14177;51.520;6.764;2023-04-30T10:26:42;102001.09;;;22.92
69785;BMP280;14177;51.520;6.764;2023-04-30T10:29:09;101996.34;;;23.11
69785;BMP280;14177;51.520;6.764;2023-04-30T10:31:44;102008.81;;;23.23
69785;BMP280;14177;51.520;6.764;2023-04-30T10:36:55;101990.00;;;23.28
69785;BMP280;14177;51.520;6.764;2023-04-30T10:39:26;101997.47;;;23.47
69785;BMP280;14177;51.520;6.764;2023-04-30T10:42:05;101991.53;;;23.44
69785;BMP280;14177;51.520;6.764;2023-04-30T10:44:35;101987.94;;;23.45
69785;BMP280;14177;51.520;6.764;2023-04-30T10:47:04;101987.47;;;23.38
69785;BMP280;14177;51.520;6.764;2023-04-30T10:49:31;101981.75;;;23.44
69785;BMP280;14177;51.520;6.764;2023-04-30T10:52:01;101978.56;;;23.39
69785;BMP280;14177;51.520;6.764;2023-04-30T10:54:34;101976.25;;;23.21
69785;BMP280;14177;51.520;6.764;2023-04-30T10:57:16;101967.47;;;23.07
69785;BMP280;14177;51.520;6.764;2023-04-30T10:59:52;101972.69;;;23.08
69785;BMP280;14177;51.520;6.764;2023-04-30T11:02:19;101961.13;;;23.23
69785;BMP280;14177;51.520;6.764;2023-04-30T11:07:33;101949.03;;;23.84
69785;BMP280;14177;51.520;6.764;2023-04-30T11:10:01;101945.84;;;24.04
69785;BMP280;14177;51.520;6.764;2023-04-30T11:12:29;101943.94;;;24.06
69785;BMP280;14177;51.520;6.764;2023-04-30T11:15:12;101943.50;;;24.12
69785;BMP280;14177;51.520;6.764;2023-04-30T11:17:39;101946.38;;;24.34
69785;BMP280;14177;51.520;6.764;2023-04-30T11:20:11;101935.34;;;24.40
69785;BMP280;14177;51.520;6.764;2023-04-30T11:22:38;101936.75;;;24.58
69785;BMP280;14177;51.520;6.764;2023-04-30T11:25:10;101934.78;;;24.48
69785;BMP280;14177;51.520;6.764;2023-04-30T11:27:43;101935.88;;;24.58
69785;BMP280;14177;51.520;6.764;2023-04-30T11:30:16;101935.88;;;24.70
69785;BMP280;14177;51.520;6.764;2023-04-30T11:32:48;101925.47;;;24.67
69785;BMP280;14177;51.520;6.764;2023-04-30T11:35:17;101917.53;;;24.78
69785;BMP280;14177;51.520;6.764;2023-04-30T11:37:47;101926.47;;;24.89
69785;BMP280;14177;51.520;6.764;2023-04-30T11:40:14;101925.28;;;24.81
69785;BMP280;14177;51.520;6.764;2023-04-30T11:42:42;101926.19;;;24.69
69785;BMP280;14177;51.520;6.764;2023-04-30T11:45:15;101918.47;;;24.89
69785;BMP280;14177;51.520;6.764;2023-04-30T11:47:52;101911.13;;;24.93
69785;BMP280;14177;51.520;6.764;2023-04-30T11:50:25;101922.28;;;24.62
69785;BMP280;14177;51.520;6.764;2023-04-30T11:52:57;101907.59;;;24.69
69785;BMP280;14177;51.520;6.764;2023-04-30T11:55:27;101912.69;;;24.72
69785;BMP280;14177;51.520;6.764;2023-04-30T11:57:56;101906.13;;;24.15
69785;BMP280;14177;51.520;6.764;2023-04-30T12:00:28;101911.50;;;23.64
69785;BMP280;14177;51.520;6.764;2023-04-30T12:02:59;101916.16;;;23.22
69785;BMP280;14177;51.520;6.764;2023-04-30T12:05:29;101918.16;;;23.04
69785;BMP280;14177;51.520;6.764;2023-04-30T12:07:59;101918.88;;;23.46
69785;BMP280;14177;51.520;6.764;2023-04-30T12:10:27;101906.03;;;23.92
69785;BMP280;14177;51.520;6.764;2023-04-30T12:12:53;101892.34;;;24.10
69785;BMP280;14177;51.520;6.764;2023-04-30T12:15:23;101895.94;;;24.09
69785;BMP280;14177;51.520;6.764;2023-04-30T12:17:56;101899.34;;;24.24
69785;BMP280;14177;51.520;6.764;2023-04-30T12:20:26;101892.97;;;24.51
69785;BMP280;14177;51.520;6.764;2023-04-30T12:22:54;101891.47;;;24.47
69785;BMP280;14177;51.520;6.764;2023-04-30T12:25:24;101893.00;;;24.01
69785;BMP280;14177;51.520;6.764;2023-04-30T12:27:54;101883.84;;;23.93
69785;BMP280;14177;51.520;6.764;2023-04-30T12:30:25;101882.47;;;24.12
69785;BMP280;14177;51.520;6.764;2023-04-30T12:32:58;101883.81;;;24.30
69785;BMP280;14177;51.520;6.764;2023-04-30T12:35:28;101882.44;;;24.62
69785;BMP280;14177;51.520;6.764;2023-04-30T12:38:06;101875.03;;;24.78
69785;BMP280;14177;51.520;6.764;2023-04-30T12:40:35;101880.69;;;24.97
69785;BMP280;14177;51.520;6.764;2023-04-30T12:43:06;101880.31;;;24.90
69785;BMP280;14177;51.520;6.764;2023-04-30T12:45:51;101872.97;;;24.46
69785;BMP280;14177;51.520;6.764;2023-04-30T12:48:21;101886.44;;;24.43
69785;BMP280;14177;51.520;6.764;2023-04-30T12:50:59;101880.22;;;24.56
69785;BMP280;14177;51.520;6.764;2023-04-30T12:53:28;101874.41;;;24.74
69785;BMP280;14177;51.520;6.764;2023-04-30T12:56:15;101858.38;;;24.76
69785;BMP280;14177;51.520;6.764;2023-04-30T12:58:45;101868.53;;;24.82
69785;BMP280;14177;51.520;6.764;2023-04-30T13:01:20;101859.03;;;24.90
69785;BMP280;14177;51.520;6.764;2023-04-30T13:03:49;101869.97;;;24.75
69785;BMP280;14177;51.520;6.764;2023-04-30T13:06:17;101866.31;;;24.15
69785;BMP280;14177;51.520;6.764;2023-04-30T13:08:44;101860.91;;;24.04
69785;BMP280;14177;51.520;6.764;2023-04-30T13:11:25;101847.63;;;24.29
69785;BMP280;14177;51.520;6.764;2023-04-30T13:13:53;101848.63;;;24.64
69785;BMP280;14177;51.520;6.764;2023-04-30T13:16:21;101845.09;;;24.76
69785;BMP280;14177;51.520;6.764;2023-04-30T13:18:50;101831.16;;;24.96
69785;BMP280;14177;51.520;6.764;2023-04-30T13:21:17;101841.78;;;25.19
69785;BMP280;14177;51.520;6.764;2023-04-30T13:23:47;101839.63;;;25.24
69785;BMP280;14177;51.520;6.764;2023-04-30T13:26:22;101840.81;;;25.55
69785;BMP280;14177;51.520;6.764;2023-04-30T13:29:16;101828.59;;;25.87
69785;BMP280;14177;51.520;6.764;2023-04-30T13:31:50;101833.69;;;26.00
69785;BMP280;14177;51.520;6.764;2023-04-30T13:34:20;101828.69;;;25.96
69785;BMP280;14177;51.520;6.764;2023-04-30T13:36:51;101824.47;;;25.94
69785;BMP280;14177;51.520;6.764;2023-04-30T13:39:19;101824.84;;;25.55
69785;BMP280;14177;51.520;6.764;2023-04-30T13:41:47;101822.59;;;25.16
69785;BMP280;14177;51.520;6.764;2023-04-30T13:44:14;101820.94;;;25.02
69785;BMP280;14177;51.520;6.764;2023-04-30T13:46:42;101818.03;;;24.82
69785;BMP280;14177;51.520;6.764;2023-04-30T13:49:09;101823.13;;;24.85
69785;BMP280;14177;51.520;6.764;2023-04-30T13:51:36;101809.81;;;24.74
69785;BMP280;14177;51.520;6.764;2023-04-30T13:54:03;101810.03;;;24.71
69785;BMP280;14177;51.520;6.764;2023-04-30T13:56:30;101798.25;;;24.86
69785;BMP280;14177;51.520;6.764;2023-04-30T13:58:57;101803.78;;;24.83
69785;BMP280;14177;51.520;6.764;2023-04-30T14:01:24;101801.47;;;24.55
69785;BMP280;14177;51.520;6.764;2023-04-30T14:03:51;101805.03;;;24.18
69785;BMP280;14177;51.520;6.764;2023-04-30T14:06:19;101810.06;;;23.98
69785;BMP280;14177;51.520;6.764;2023-04-30T14:08:46;101800.00;;;23.90
69785;BMP280;14177;51.520;6.764;2023-04-30T14:11:13;101803.72;;;23.88
69785;BMP280;14177;51.520;6.764;2023-04-30T14:13:40;101797.09;;;24.18
69785;BMP280;14177;51.520;6.764;2023-04-30T14:16:07;101798.50;;;24.47
69785;BMP280;14177;51.520;6.764;2023-04-30T14:18:36;101794.91;;;24.48
69785;BMP280;14177;51.520;6.764;2023-04-30T14:21:03;101795.94;;;24.10
69785;BMP280;14177;51.520;6.764;2023-04-30T14:23:30;101790.22;;;23.53
69785;BMP280;14177;51.520;6.764;2023-04-30T14:25:57;101782.53;;;23.12
69785;BMP280;14177;51.520;6.764;2023-04-30T14:28:24;101789.34;;;23.16
69785;BMP280;14177;51.520;6.764;2023-04-30T14:30:51;101782.75;;;23.34
69785;BMP280;14177;51.520;6.764;2023-04-30T14:33:18;101783.44;;;23.62